sensor_id;sensor_type;location;lat;lon;timestamp;P1;durP1;ratioP1;P2;durP2;ratioP2
2023;SDS011;1016;48.770;9.154;2023-05-20T00:00:25;23.07;;;3.77;;
2023;SDS011;1016;48.770;9.154;2023-05-20T00:02:51;24.00;;;4.00;;
2023;SDS011;1016;48.770;9.154;2023-05-20T00:05:17;25.33;;;5.03;;
2023;SDS011;1016;48.770;9.154;2023-05-20T00:07:42;23.40;;;3.87;;
2023;SDS011;1016;48.770;9.154;2023-05-20T00:10:08;26.50;;;3.80;;
2023;SDS011;1016;48.770;9.154;2023-05-20T00:12:34;22.97;;;3.80;;
2023;SDS011;1016;48.770;9.154;2023-05-20T00:15:00;23.90;;;4.50;;
2023;SDS011;1016;48.770;9.154;2023-05-20T00:17:25;24.47;;;4.43;;
2023;SDS011;1016;48.770;9.154;2023-05-20T00:19:52;24.90;;;4.50;;
2023;SDS011;1016;48.770;9.154;2023-05-20T00:22:18;25.00;;;4.30;;
2023;SDS011;1016;48.770;9.154;2023-05-20T00:24:44;22.77;;;3.73;;
2023;SDS011;1016;48.770;9.154;2023-05-20T00:27:09;24.20;;;4.63;;
2023;SDS011;1016;48.770;9.154;2023-05-20T00:29:35;25.47;;;5.60;;
2023;SDS011;1016;48.770;9.154;2023-05-20T00:32:00;24.70;;;4.93;;
2023;SDS011;1016;48.770;9.154;2023-05-20T00:34:26;23.70;;;4.70;;
2023;SDS011;1016;48.770;9.154;2023-05-20T00:36:51;24.07;;;5.70;;
2023;SDS011;1016;48.770;9.154;2023-05-20T00:39:17;24.30;;;5.57;;
2023;SDS011;1016;48.770;9.154;2023-05-20T00:41:43;26.60;;;5.97;;
2023;SDS011;1016;48.770;9.154;2023-05-20T00:44:08;24.10;;;5.50;;
2023;SDS011;1016;48.770;9.154;2023-05-20T00:46:34;24.67;;;5.37;;
2023;SDS011;1016;48.770;9.154;2023-05-20T00:49:00;25.40;;;5.40;;
2023;SDS011;1016;48.770;9.154;2023-05-20T00:51:26;25.33;;;5.70;;
2023;SDS011;1016;48.770;9.154;2023-05-20T00:53:51;23.87;;;5.20;;
2023;SDS011;1016;48.770;9.154;2023-05-20T00:56:17;25.60;;;5.80;;
2023;SDS011;1016;48.770;9.154;2023-05-20T00:58:44;24.20;;;5.60;;
2023;SDS011;1016;48.770;9.154;2023-05-20T01:01:09;24.77;;;5.27;;
2023;SDS011;1016;48.770;9.154;2023-05-20T01:03:35;24.97;;;5.10;;
2023;SDS011;1016;48.770;9.154;2023-05-20T01:06:02;24.53;;;4.83;;
2023;SDS011;1016;48.770;9.154;2023-05-20T01:08:27;24.43;;;5.10;;
2023;SDS011;1016;48.770;9.154;2023-05-20T01:11:04;26.07;;;5.50;;
2023;SDS011;1016;48.770;9.154;2023-05-20T01:13:38;24.03;;;5.20;;
2023;SDS011;1016;48.770;9.154;2023-05-20T01:16:10;24.10;;;5.40;;
2023;SDS011;1016;48.770;9.154;2023-05-20T01:18:41;24.60;;;5.10;;
2023;SDS011;1016;48.770;9.154;2023-05-20T01:21:10;24.03;;;5.23;;
2023;SDS011;1016;48.770;9.154;2023-05-20T01:23:38;23.03;;;4.93;;
2023;SDS011;1016;48.770;9.154;2023-05-20T01:26:04;24.13;;;5.50;;
2023;SDS011;1016;48.770;9.154;2023-05-20T01:28:34;23.53;;;4.93;;
2023;SDS011;1016;48.770;9.154;2023-05-20T01:31:03;24.23;;;4.77;;
2023;SDS011;1016;48.770;9.154;2023-05-20T01:33:36;23.53;;;4.80;;
2023;SDS011;1016;48.770;9.154;2023-05-20T01:36:05;22.57;;;4.57;;
2023;SDS011;1016;48.770;9.154;2023-05-20T01:38:31;24.40;;;5.00;;
2023;SDS011;1016;48.770;9.154;2023-05-20T01:40:57;23.47;;;4.97;;
2023;SDS011;1016;48.770;9.154;2023-05-20T01:43:25;22.33;;;4.37;;
2023;SDS011;1016;48.770;9.154;2023-05-20T01:45:51;22.93;;;4.73;;
2023;SDS011;1016;48.770;9.154;2023-05-20T01:48:16;23.93;;;5.07;;
2023;SDS011;1016;48.770;9.154;2023-05-20T01:50:42;23.43;;;4.37;;
2023;SDS011;1016;48.770;9.154;2023-05-20T01:53:07;23.80;;;5.00;;
2023;SDS011;1016;48.770;9.154;2023-05-20T01:55:33;24.40;;;4.83;;
2023;SDS011;1016;48.770;9.154;2023-05-20T01:57:59;23.40;;;4.60;;
2023;SDS011;1016;48.770;9.154;2023-05-20T02:00:25;24.37;;;4.50;;
2023;SDS011;1016;48.770;9.154;2023-05-20T02:02:51;23.00;;;4.97;;
2023;SDS011;1016;48.770;9.154;2023-05-20T02:05:16;23.73;;;5.03;;
2023;SDS011;1016;48.770;9.154;2023-05-20T02:07:42;22.97;;;4.80;;
2023;SDS011;1016;48.770;9.154;2023-05-20T02:10:07;24.90;;;5.53;;
2023;SDS011;1016;48.770;9.154;2023-05-20T02:12:34;22.83;;;4.70;;
2023;SDS011;1016;48.770;9.154;2023-05-20T02:15:00;26.50;;;4.57;;
2023;SDS011;1016;48.770;9.154;2023-05-20T02:17:25;23.90;;;4.80;;
2023;SDS011;1016;48.770;9.154;2023-05-20T02:19:51;24.97;;;5.77;;
2023;SDS011;1016;48.770;9.154;2023-05-20T02:22:17;25.60;;;5.37;;
2023;SDS011;1016;48.770;9.154;2023-05-20T02:24:42;23.80;;;4.97;;
2023;SDS011;1016;48.770;9.154;2023-05-20T02:27:08;23.93;;;4.83;;
2023;SDS011;1016;48.770;9.154;2023-05-20T02:29:33;23.37;;;5.20;;
2023;SDS011;1016;48.770;9.154;2023-05-20T02:31:59;25.93;;;5.10;;
2023;SDS011;1016;48.770;9.154;2023-05-20T02:34:25;25.20;;;5.40;;
2023;SDS011;1016;48.770;9.154;2023-05-20T02:36:51;24.30;;;5.40;;
2023;SDS011;1016;48.770;9.154;2023-05-20T02:39:17;23.53;;;4.90;;
2023;SDS011;1016;48.770;9.154;2023-05-20T02:41:42;23.23;;;4.97;;
2023;SDS011;1016;48.770;9.154;2023-05-20T02:44:08;24.97;;;5.30;;
2023;SDS011;1016;48.770;9.154;2023-05-20T02:46:33;24.10;;;4.87;;
2023;SDS011;1016;48.770;9.154;2023-05-20T02:48:59;23.00;;;4.77;;
2023;SDS011;1016;48.770;9.154;2023-05-20T02:51:25;23.60;;;5.03;;
2023;SDS011;1016;48.770;9.154;2023-05-20T02:53:50;24.03;;;4.97;;
2023;SDS011;1016;48.770;9.154;2023-05-20T02:56:16;24.20;;;5.10;;
2023;SDS011;1016;48.770;9.154;2023-05-20T02:58:45;23.47;;;5.27;;
2023;SDS011;1016;48.770;9.154;2023-05-20T03:01:10;23.67;;;5.50;;
2023;SDS011;1016;48.770;9.154;2023-05-20T03:03:36;23.73;;;5.07;;
2023;SDS011;1016;48.770;9.154;2023-05-20T03:06:02;24.73;;;5.70;;
2023;SDS011;1016;48.770;9.154;2023-05-20T03:08:27;23.50;;;4.97;;
2023;SDS011;1016;48.770;9.154;2023-05-20T03:10:53;24.17;;;5.40;;
2023;SDS011;1016;48.770;9.154;2023-05-20T03:13:19;24.10;;;5.60;;
2023;SDS011;1016;48.770;9.154;2023-05-20T03:15:44;23.60;;;5.10;;
2023;SDS011;1016;48.770;9.154;2023-05-20T03:18:10;24.83;;;5.20;;
2023;SDS011;1016;48.770;9.154;2023-05-20T03:20:37;23.90;;;5.20;;
2023;SDS011;1016;48.770;9.154;2023-05-20T03:23:04;23.63;;;5.20;;
2023;SDS011;1016;48.770;9.154;2023-05-20T03:25:30;26.67;;;5.37;;
2023;SDS011;1016;48.770;9.154;2023-05-20T03:27:56;24.73;;;5.73;;
2023;SDS011;1016;48.770;9.154;2023-05-20T03:30:24;23.27;;;5.00;;
2023;SDS011;1016;48.770;9.154;2023-05-20T03:32:51;23.57;;;5.57;;
2023;SDS011;1016;48.770;9.154;2023-05-20T03:35:17;26.67;;;5.40;;
2023;SDS011;1016;48.770;9.154;2023-05-20T03:37:43;23.67;;;4.93;;
2023;SDS011;1016;48.770;9.154;2023-05-20T03:40:09;24.37;;;5.20;;
2023;SDS011;1016;48.770;9.154;2023-05-20T03:42:37;22.77;;;4.87;;
2023;SDS011;1016;48.770;9.154;2023-05-20T03:45:03;24.57;;;5.23;;
2023;SDS011;1016;48.770;9.154;2023-05-20T03:47:30;22.93;;;5.10;;
2023;SDS011;1016;48.770;9.154;2023-05-20T03:49:56;26.17;;;5.33;;
2023;SDS011;1016;48.770;9.154;2023-05-20T03:52:21;24.50;;;5.17;;
2023;SDS011;1016;48.770;9.154;2023-05-20T03:54:47;25.30;;;5.50;;
2023;SDS011;1016;48.770;9.154;2023-05-20T03:57:12;23.17;;;5.17;;
2023;SDS011;1016;48.770;9.154;2023-05-20T03:59:38;24.30;;;5.67;;
2023;SDS011;1016;48.770;9.154;2023-05-20T04:02:04;23.93;;;5.10;;
2023;SDS011;1016;48.770;9.154;2023-05-20T04:04:30;23.40;;;5.70;;
2023;SDS011;1016;48.770;9.154;2023-05-20T04:06:56;24.83;;;5.33;;
2023;SDS011;1016;48.770;9.154;2023-05-20T04:09:22;24.10;;;5.57;;
2023;SDS011;1016;48.770;9.154;2023-05-20T04:11:47;23.77;;;5.00;;
2023;SDS011;1016;48.770;9.154;2023-05-20T04:14:13;23.97;;;5.30;;
2023;SDS011;1016;48.770;9.154;2023-05-20T04:16:39;24.10;;;5.77;;
2023;SDS011;1016;48.770;9.154;2023-05-20T04:19:05;23.60;;;5.43;;
2023;SDS011;1016;48.770;9.154;2023-05-20T04:21:31;24.10;;;5.63;;
2023;SDS011;1016;48.770;9.154;2023-05-20T04:23:56;24.43;;;5.50;;
2023;SDS011;1016;48.770;9.154;2023-05-20T04:26:22;23.30;;;5.10;;
2023;SDS011;1016;48.770;9.154;2023-05-20T04:28:48;24.70;;;5.30;;
2023;SDS011;1016;48.770;9.154;2023-05-20T04:31:13;22.90;;;5.07;;
2023;SDS011;1016;48.770;9.154;2023-05-20T04:33:39;24.17;;;5.00;;
2023;SDS011;1016;48.770;9.154;2023-05-20T04:36:05;24.20;;;5.60;;
2023;SDS011;1016;48.770;9.154;2023-05-20T04:38:33;24.50;;;5.20;;
2023;SDS011;1016;48.770;9.154;2023-05-20T04:40:59;23.20;;;5.10;;
2023;SDS011;1016;48.770;9.154;2023-05-20T04:43:25;24.10;;;5.40;;
2023;SDS011;1016;48.770;9.154;2023-05-20T04:45:54;23.33;;;4.90;;
2023;SDS011;1016;48.770;9.154;2023-05-20T04:48:19;24.00;;;5.13;;
2023;SDS011;1016;48.770;9.154;2023-05-20T04:50:46;23.87;;;5.63;;
2023;SDS011;1016;48.770;9.154;2023-05-20T04:53:13;23.10;;;5.67;;
2023;SDS011;1016;48.770;9.154;2023-05-20T04:55:42;24.40;;;5.63;;
2023;SDS011;1016;48.770;9.154;2023-05-20T04:58:08;24.43;;;5.50;;
2023;SDS011;1016;48.770;9.154;2023-05-20T05:00:45;23.30;;;5.30;;
2023;SDS011;1016;48.770;9.154;2023-05-20T05:03:11;27.43;;;5.63;;
2023;SDS011;1016;48.770;9.154;2023-05-20T05:05:39;23.60;;;5.23;;
2023;SDS011;1016;48.770;9.154;2023-05-20T05:08:06;24.47;;;5.43;;
2023;SDS011;1016;48.770;9.154;2023-05-20T05:10:32;24.10;;;5.53;;
2023;SDS011;1016;48.770;9.154;2023-05-20T05:12:58;24.53;;;5.97;;
2023;SDS011;1016;48.770;9.154;2023-05-20T05:15:24;24.23;;;5.40;;
2023;SDS011;1016;48.770;9.154;2023-05-20T05:17:50;26.30;;;5.83;;
2023;SDS011;1016;48.770;9.154;2023-05-20T05:20:16;24.23;;;5.10;;
2023;SDS011;1016;48.770;9.154;2023-05-20T05:22:42;23.77;;;5.30;;
2023;SDS011;1016;48.770;9.154;2023-05-20T05:25:07;24.43;;;5.60;;
2023;SDS011;1016;48.770;9.154;2023-05-20T05:27:34;25.10;;;5.67;;
2023;SDS011;1016;48.770;9.154;2023-05-20T05:30:00;23.60;;;5.60;;
2023;SDS011;1016;48.770;9.154;2023-05-20T05:32:26;24.60;;;5.13;;
2023;SDS011;1016;48.770;9.154;2023-05-20T05:34:52;24.00;;;5.43;;
2023;SDS011;1016;48.770;9.154;2023-05-20T05:37:17;24.40;;;5.50;;
2023;SDS011;1016;48.770;9.154;2023-05-20T05:39:43;24.83;;;5.93;;
2023;SDS011;1016;48.770;9.154;2023-05-20T05:42:08;24.03;;;5.93;;
2023;SDS011;1016;48.770;9.154;2023-05-20T05:44:34;23.80;;;5.50;;
2023;SDS011;1016;48.770;9.154;2023-05-20T05:47:00;25.50;;;5.37;;
2023;SDS011;1016;48.770;9.154;2023-05-20T05:49:25;24.00;;;5.90;;
2023;SDS011;1016;48.770;9.154;2023-05-20T05:51:50;24.10;;;5.70;;
2023;SDS011;1016;48.770;9.154;2023-05-20T05:54:16;24.80;;;5.47;;
2023;SDS011;1016;48.770;9.154;2023-05-20T05:56:42;24.40;;;5.87;;
2023;SDS011;1016;48.770;9.154;2023-05-20T05:59:07;24.50;;;5.60;;
2023;SDS011;1016;48.770;9.154;2023-05-20T06:01:33;23.20;;;5.13;;
2023;SDS011;1016;48.770;9.154;2023-05-20T06:03:58;23.97;;;6.43;;
2023;SDS011;1016;48.770;9.154;2023-05-20T06:06:25;23.87;;;5.80;;
2023;SDS011;1016;48.770;9.154;2023-05-20T06:08:51;25.60;;;6.07;;
2023;SDS011;1016;48.770;9.154;2023-05-20T06:11:16;25.10;;;6.03;;
2023;SDS011;1016;48.770;9.154;2023-05-20T06:13:42;25.70;;;5.73;;
2023;SDS011;1016;48.770;9.154;2023-05-20T06:16:07;25.40;;;5.90;;
2023;SDS011;1016;48.770;9.154;2023-05-20T06:18:32;23.90;;;5.50;;
2023;SDS011;1016;48.770;9.154;2023-05-20T06:20:58;24.33;;;5.97;;
2023;SDS011;1016;48.770;9.154;2023-05-20T06:23:24;24.87;;;5.80;;
2023;SDS011;1016;48.770;9.154;2023-05-20T06:25:50;24.20;;;5.30;;
2023;SDS011;1016;48.770;9.154;2023-05-20T06:28:16;27.80;;;6.60;;
2023;SDS011;1016;48.770;9.154;2023-05-20T06:30:42;24.80;;;6.53;;
2023;SDS011;1016;48.770;9.154;2023-05-20T06:33:08;26.10;;;5.67;;
2023;SDS011;1016;48.770;9.154;2023-05-20T06:35:33;23.87;;;5.60;;
2023;SDS011;1016;48.770;9.154;2023-05-20T06:37:59;24.43;;;6.07;;
2023;SDS011;1016;48.770;9.154;2023-05-20T06:40:25;23.73;;;5.80;;
2023;SDS011;1016;48.770;9.154;2023-05-20T06:42:51;24.93;;;5.80;;
2023;SDS011;1016;48.770;9.154;2023-05-20T06:45:17;25.03;;;6.57;;
2023;SDS011;1016;48.770;9.154;2023-05-20T06:47:43;23.70;;;6.30;;
2023;SDS011;1016;48.770;9.154;2023-05-20T06:50:09;25.60;;;6.77;;
2023;SDS011;1016;48.770;9.154;2023-05-20T06:52:35;24.73;;;6.40;;
2023;SDS011;1016;48.770;9.154;2023-05-20T06:55:01;25.67;;;6.60;;
2023;SDS011;1016;48.770;9.154;2023-05-20T06:57:29;26.03;;;6.37;;
2023;SDS011;1016;48.770;9.154;2023-05-20T06:59:54;25.83;;;6.60;;
2023;SDS011;1016;48.770;9.154;2023-05-20T07:02:20;25.00;;;6.57;;
2023;SDS011;1016;48.770;9.154;2023-05-20T07:04:46;24.97;;;6.77;;
2023;SDS011;1016;48.770;9.154;2023-05-20T07:07:11;24.97;;;6.67;;
2023;SDS011;1016;48.770;9.154;2023-05-20T07:09:37;23.17;;;5.73;;
2023;SDS011;1016;48.770;9.154;2023-05-20T07:12:03;26.00;;;6.70;;
2023;SDS011;1016;48.770;9.154;2023-05-20T07:14:28;25.73;;;6.87;;
2023;SDS011;1016;48.770;9.154;2023-05-20T07:16:54;25.73;;;6.50;;
2023;SDS011;1016;48.770;9.154;2023-05-20T07:19:19;24.47;;;6.57;;
2023;SDS011;1016;48.770;9.154;2023-05-20T07:21:45;25.63;;;6.80;;
2023;SDS011;1016;48.770;9.154;2023-05-20T07:24:10;24.40;;;6.27;;
2023;SDS011;1016;48.770;9.154;2023-05-20T07:26:36;25.07;;;5.77;;
2023;SDS011;1016;48.770;9.154;2023-05-20T07:29:02;25.83;;;6.40;;
2023;SDS011;1016;48.770;9.154;2023-05-20T07:31:28;24.43;;;6.33;;
2023;SDS011;1016;48.770;9.154;2023-05-20T07:33:55;23.90;;;6.53;;
2023;SDS011;1016;48.770;9.154;2023-05-20T07:36:20;24.87;;;6.27;;
2023;SDS011;1016;48.770;9.154;2023-05-20T07:38:46;26.50;;;6.70;;
2023;SDS011;1016;48.770;9.154;2023-05-20T07:41:11;23.87;;;6.40;;
2023;SDS011;1016;48.770;9.154;2023-05-20T07:43:37;29.10;;;9.97;;
2023;SDS011;1016;48.770;9.154;2023-05-20T07:46:02;24.73;;;6.03;;
2023;SDS011;1016;48.770;9.154;2023-05-20T07:48:28;23.83;;;5.63;;
2023;SDS011;1016;48.770;9.154;2023-05-20T07:50:54;25.77;;;6.60;;
2023;SDS011;1016;48.770;9.154;2023-05-20T07:53:23;23.70;;;5.90;;
2023;SDS011;1016;48.770;9.154;2023-05-20T07:55:48;24.00;;;6.20;;
2023;SDS011;1016;48.770;9.154;2023-05-20T07:58:14;24.53;;;6.23;;
2023;SDS011;1016;48.770;9.154;2023-05-20T08:00:39;23.30;;;5.93;;
2023;SDS011;1016;48.770;9.154;2023-05-20T08:03:05;25.27;;;6.60;;
2023;SDS011;1016;48.770;9.154;2023-05-20T08:05:31;25.13;;;6.50;;
2023;SDS011;1016;48.770;9.154;2023-05-20T08:07:57;24.60;;;5.87;;
2023;SDS011;1016;48.770;9.154;2023-05-20T08:10:23;23.90;;;6.00;;
2023;SDS011;1016;48.770;9.154;2023-05-20T08:12:48;26.73;;;5.70;;
2023;SDS011;1016;48.770;9.154;2023-05-20T08:15:14;24.17;;;6.40;;
2023;SDS011;1016;48.770;9.154;2023-05-20T08:17:39;24.50;;;6.90;;
2023;SDS011;1016;48.770;9.154;2023-05-20T08:20:05;24.27;;;6.10;;
2023;SDS011;1016;48.770;9.154;2023-05-20T08:22:32;24.53;;;6.47;;
2023;SDS011;1016;48.770;9.154;2023-05-20T08:24:57;24.17;;;6.30;;
2023;SDS011;1016;48.770;9.154;2023-05-20T08:27:23;24.03;;;6.27;;
2023;SDS011;1016;48.770;9.154;2023-05-20T08:29:48;24.40;;;6.43;;
2023;SDS011;1016;48.770;9.154;2023-05-20T08:32:14;23.83;;;6.13;;
2023;SDS011;1016;48.770;9.154;2023-05-20T08:34:40;24.30;;;6.10;;
2023;SDS011;1016;48.770;9.154;2023-05-20T08:37:06;26.53;;;6.63;;
2023;SDS011;1016;48.770;9.154;2023-05-20T08:39:32;24.97;;;6.57;;
2023;SDS011;1016;48.770;9.154;2023-05-20T08:41:58;25.27;;;6.07;;
2023;SDS011;1016;48.770;9.154;2023-05-20T08:44:23;25.17;;;6.07;;
2023;SDS011;1016;48.770;9.154;2023-05-20T08:46:51;23.77;;;6.10;;
2023;SDS011;1016;48.770;9.154;2023-05-20T08:49:18;25.50;;;6.83;;
2023;SDS011;1016;48.770;9.154;2023-05-20T08:51:44;24.00;;;6.20;;
2023;SDS011;1016;48.770;9.154;2023-05-20T08:54:11;26.77;;;6.40;;
2023;SDS011;1016;48.770;9.154;2023-05-20T08:56:38;24.63;;;6.47;;
2023;SDS011;1016;48.770;9.154;2023-05-20T08:59:05;24.33;;;6.33;;
2023;SDS011;1016;48.770;9.154;2023-05-20T09:01:33;25.20;;;6.57;;
2023;SDS011;1016;48.770;9.154;2023-05-20T09:04:07;23.67;;;5.53;;
2023;SDS011;1016;48.770;9.154;2023-05-20T09:06:43;23.23;;;5.90;;
2023;SDS011;1016;48.770;9.154;2023-05-20T09:09:10;25.17;;;6.20;;
2023;SDS011;1016;48.770;9.154;2023-05-20T09:11:37;24.53;;;6.40;;
2023;SDS011;1016;48.770;9.154;2023-05-20T09:14:04;24.60;;;6.63;;
2023;SDS011;1016;48.770;9.154;2023-05-20T09:16:30;24.60;;;6.30;;
2023;SDS011;1016;48.770;9.154;2023-05-20T09:18:55;23.40;;;5.73;;
2023;SDS011;1016;48.770;9.154;2023-05-20T09:21:24;24.80;;;6.93;;
2023;SDS011;1016;48.770;9.154;2023-05-20T09:23:54;24.50;;;6.53;;
2023;SDS011;1016;48.770;9.154;2023-05-20T09:26:23;24.20;;;6.10;;
2023;SDS011;1016;48.770;9.154;2023-05-20T09:28:51;23.90;;;5.97;;
2023;SDS011;1016;48.770;9.154;2023-05-20T09:31:16;23.43;;;5.60;;
2023;SDS011;1016;48.770;9.154;2023-05-20T09:33:42;24.90;;;6.50;;
2023;SDS011;1016;48.770;9.154;2023-05-20T09:36:08;26.50;;;6.50;;
2023;SDS011;1016;48.770;9.154;2023-05-20T09:38:37;25.63;;;6.40;;
2023;SDS011;1016;48.770;9.154;2023-05-20T09:41:10;23.50;;;6.20;;
2023;SDS011;1016;48.770;9.154;2023-05-20T09:43:38;25.33;;;6.70;;
2023;SDS011;1016;48.770;9.154;2023-05-20T09:46:04;25.67;;;6.67;;
2023;SDS011;1016;48.770;9.154;2023-05-20T09:48:31;25.13;;;6.53;;
2023;SDS011;1016;48.770;9.154;2023-05-20T09:51:00;24.80;;;6.40;;
2023;SDS011;1016;48.770;9.154;2023-05-20T09:53:26;25.07;;;6.30;;
2023;SDS011;1016;48.770;9.154;2023-05-20T09:55:52;25.60;;;6.37;;
2023;SDS011;1016;48.770;9.154;2023-05-20T09:58:19;24.63;;;6.40;;
2023;SDS011;1016;48.770;9.154;2023-05-20T10:00:46;24.60;;;6.60;;
2023;SDS011;1016;48.770;9.154;2023-05-20T10:03:11;24.43;;;5.97;;
2023;SDS011;1016;48.770;9.154;2023-05-20T10:05:39;25.10;;;6.13;;
2023;SDS011;1016;48.770;9.154;2023-05-20T10:13:25;25.40;;;6.30;;
2023;SDS011;1016;48.770;9.154;2023-05-20T10:16:18;24.17;;;6.30;;
2023;SDS011;1016;48.770;9.154;2023-05-20T10:18:58;28.90;;;6.20;;
2023;SDS011;1016;48.770;9.154;2023-05-20T10:21:34;24.77;;;5.97;;
2023;SDS011;1016;48.770;9.154;2023-05-20T10:24:06;23.90;;;6.23;;
2023;SDS011;1016;48.770;9.154;2023-05-20T10:26:41;24.67;;;6.60;;
2023;SDS011;1016;48.770;9.154;2023-05-20T10:29:18;23.87;;;6.50;;
2023;SDS011;1016;48.770;9.154;2023-05-20T10:31:49;24.17;;;6.10;;
2023;SDS011;1016;48.770;9.154;2023-05-20T10:34:17;23.90;;;5.90;;
2023;SDS011;1016;48.770;9.154;2023-05-20T10:37:05;24.27;;;6.90;;
2023;SDS011;1016;48.770;9.154;2023-05-20T10:39:30;25.00;;;6.67;;
2023;SDS011;1016;48.770;9.154;2023-05-20T10:42:08;24.03;;;5.90;;
2023;SDS011;1016;48.770;9.154;2023-05-20T10:44:41;24.90;;;6.60;;
2023;SDS011;1016;48.770;9.154;2023-05-20T10:47:08;24.37;;;6.10;;
2023;SDS011;1016;48.770;9.154;2023-05-20T10:49:34;25.23;;;5.50;;
2023;SDS011;1016;48.770;9.154;2023-05-20T10:52:00;24.33;;;6.00;;
2023;SDS011;1016;48.770;9.154;2023-05-20T10:54:26;26.13;;;6.33;;
2023;SDS011;1016;48.770;9.154;2023-05-20T10:56:53;24.10;;;6.27;;
2023;SDS011;1016;48.770;9.154;2023-05-20T10:59:19;24.07;;;6.10;;
2023;SDS011;1016;48.770;9.154;2023-05-20T11:01:45;24.20;;;5.70;;
2023;SDS011;1016;48.770;9.154;2023-05-20T11:04:12;24.93;;;6.60;;
2023;SDS011;1016;48.770;9.154;2023-05-20T11:06:48;23.80;;;5.77;;
2023;SDS011;1016;48.770;9.154;2023-05-20T11:09:15;23.70;;;5.73;;
2023;SDS011;1016;48.770;9.154;2023-05-20T11:11:40;23.30;;;5.60;;
2023;SDS011;1016;48.770;9.154;2023-05-20T11:14:06;23.23;;;5.40;;
2023;SDS011;1016;48.770;9.154;2023-05-20T11:16:31;23.10;;;5.23;;
2023;SDS011;1016;48.770;9.154;2023-05-20T11:18:57;27.13;;;5.60;;
2023;SDS011;1016;48.770;9.154;2023-05-20T11:21:22;23.50;;;6.00;;
2023;SDS011;1016;48.770;9.154;2023-05-20T11:23:50;22.17;;;4.80;;
2023;SDS011;1016;48.770;9.154;2023-05-20T11:26:16;24.20;;;5.50;;
2023;SDS011;1016;48.770;9.154;2023-05-20T11:28:41;23.17;;;6.00;;
2023;SDS011;1016;48.770;9.154;2023-05-20T11:31:06;24.60;;;5.30;;
2023;SDS011;1016;48.770;9.154;2023-05-20T11:33:32;23.47;;;5.70;;
2023;SDS011;1016;48.770;9.154;2023-05-20T11:35:58;22.93;;;5.43;;
2023;SDS011;1016;48.770;9.154;2023-05-20T11:38:23;23.10;;;5.40;;
2023;SDS011;1016;48.770;9.154;2023-05-20T11:40:52;25.33;;;5.30;;
2023;SDS011;1016;48.770;9.154;2023-05-20T11:43:19;23.70;;;5.30;;
2023;SDS011;1016;48.770;9.154;2023-05-20T11:45:47;24.93;;;5.40;;
2023;SDS011;1016;48.770;9.154;2023-05-20T11:48:18;23.80;;;5.30;;
2023;SDS011;1016;48.770;9.154;2023-05-20T11:50:44;24.63;;;5.57;;
2023;SDS011;1016;48.770;9.154;2023-05-20T11:53:17;24.20;;;5.37;;
2023;SDS011;1016;48.770;9.154;2023-05-20T11:55:51;24.73;;;5.47;;
2023;SDS011;1016;48.770;9.154;2023-05-20T11:58:21;22.80;;;5.13;;
2023;SDS011;1016;48.770;9.154;2023-05-20T12:00:56;24.07;;;5.60;;
2023;SDS011;1016;48.770;9.154;2023-05-20T12:03:22;24.63;;;5.27;;
2023;SDS011;1016;48.770;9.154;2023-05-20T12:05:48;25.70;;;5.90;;
2023;SDS011;1016;48.770;9.154;2023-05-20T12:08:15;24.93;;;5.20;;
2023;SDS011;1016;48.770;9.154;2023-05-20T12:10:40;23.87;;;5.17;;
2023;SDS011;1016;48.770;9.154;2023-05-20T12:13:06;26.83;;;5.07;;
2023;SDS011;1016;48.770;9.154;2023-05-20T12:15:35;24.67;;;6.20;;
2023;SDS011;1016;48.770;9.154;2023-05-20T12:18:04;24.30;;;4.80;;
2023;SDS011;1016;48.770;9.154;2023-05-20T12:20:30;24.60;;;5.20;;
2023;SDS011;1016;48.770;9.154;2023-05-20T12:22:58;26.00;;;5.53;;
2023;SDS011;1016;48.770;9.154;2023-05-20T12:25:24;23.47;;;4.80;;
2023;SDS011;1016;48.770;9.154;2023-05-20T12:27:50;26.83;;;5.00;;
2023;SDS011;1016;48.770;9.154;2023-05-20T12:30:17;24.43;;;5.13;;
2023;SDS011;1016;48.770;9.154;2023-05-20T12:32:44;24.70;;;5.27;;
2023;SDS011;1016;48.770;9.154;2023-05-20T12:35:10;24.37;;;5.70;;
2023;SDS011;1016;48.770;9.154;2023-05-20T12:37:37;23.53;;;5.27;;
2023;SDS011;1016;48.770;9.154;2023-05-20T12:40:03;24.00;;;5.17;;
2023;SDS011;1016;48.770;9.154;2023-05-20T12:42:35;24.10;;;5.27;;
2023;SDS011;1016;48.770;9.154;2023-05-20T12:45:01;26.07;;;5.10;;
2023;SDS011;1016;48.770;9.154;2023-05-20T12:47:27;24.00;;;5.90;;
2023;SDS011;1016;48.770;9.154;2023-05-20T12:49:53;25.40;;;5.10;;
2023;SDS011;1016;48.770;9.154;2023-05-20T12:52:19;22.93;;;4.73;;
2023;SDS011;1016;48.770;9.154;2023-05-20T12:54:44;22.60;;;4.70;;
2023;SDS011;1016;48.770;9.154;2023-05-20T12:57:10;27.50;;;5.30;;
2023;SDS011;1016;48.770;9.154;2023-05-20T12:59:35;23.40;;;5.30;;
2023;SDS011;1016;48.770;9.154;2023-05-20T13:02:01;25.57;;;4.40;;
2023;SDS011;1016;48.770;9.154;2023-05-20T13:04:27;23.10;;;4.90;;
2023;SDS011;1016;48.770;9.154;2023-05-20T13:06:52;23.50;;;5.10;;
2023;SDS011;1016;48.770;9.154;2023-05-20T13:09:18;24.10;;;5.20;;
2023;SDS011;1016;48.770;9.154;2023-05-20T13:11:44;22.70;;;4.80;;
2023;SDS011;1016;48.770;9.154;2023-05-20T13:14:09;22.90;;;4.40;;
2023;SDS011;1016;48.770;9.154;2023-05-20T13:16:35;25.23;;;5.00;;
2023;SDS011;1016;48.770;9.154;2023-05-20T13:19:01;22.90;;;5.20;;
2023;SDS011;1016;48.770;9.154;2023-05-20T13:21:26;23.23;;;4.67;;
2023;SDS011;1016;48.770;9.154;2023-05-20T13:23:52;22.67;;;4.20;;
2023;SDS011;1016;48.770;9.154;2023-05-20T13:26:17;22.60;;;4.97;;
2023;SDS011;1016;48.770;9.154;2023-05-20T13:28:43;22.53;;;4.37;;
2023;SDS011;1016;48.770;9.154;2023-05-20T13:31:08;23.00;;;4.00;;
2023;SDS011;1016;48.770;9.154;2023-05-20T13:33:34;22.07;;;4.00;;
2023;SDS011;1016;48.770;9.154;2023-05-20T13:35:59;23.03;;;4.10;;
2023;SDS011;1016;48.770;9.154;2023-05-20T13:38:25;23.00;;;4.20;;
2023;SDS011;1016;48.770;9.154;2023-05-20T13:40:51;25.53;;;4.93;;
2023;SDS011;1016;48.770;9.154;2023-05-20T13:43:17;21.60;;;4.47;;
2023;SDS011;1016;48.770;9.154;2023-05-20T14:24:34;21.87;;;4.07;;
2023;SDS011;1016;48.770;9.154;2023-05-20T14:26:59;22.00;;;4.10;;
2023;SDS011;1016;48.770;9.154;2023-05-20T14:29:25;22.30;;;4.30;;
2023;SDS011;1016;48.770;9.154;2023-05-20T14:31:50;24.30;;;4.20;;
2023;SDS011;1016;48.770;9.154;2023-05-20T14:34:16;22.42;;;4.40;;
2023;SDS011;1016;48.770;9.154;2023-05-20T14:36:41;21.83;;;4.40;;
2023;SDS011;1016;48.770;9.154;2023-05-20T14:39:08;22.00;;;4.00;;
2023;SDS011;1016;48.770;9.154;2023-05-20T14:41:33;23.40;;;4.13;;
2023;SDS011;1016;48.770;9.154;2023-05-20T14:44:00;23.02;;;4.30;;
2023;SDS011;1016;48.770;9.154;2023-05-20T14:46:25;23.60;;;5.70;;
2023;SDS011;1016;48.770;9.154;2023-05-20T14:48:51;21.70;;;4.40;;
2023;SDS011;1016;48.770;9.154;2023-05-20T14:51:16;21.67;;;3.70;;
2023;SDS011;1016;48.770;9.154;2023-05-20T14:53:42;22.83;;;3.85;;
2023;SDS011;1016;48.770;9.154;2023-05-20T14:56:07;21.80;;;3.80;;
2023;SDS011;1016;48.770;9.154;2023-05-20T14:58:33;21.30;;;3.80;;
2023;SDS011;1016;48.770;9.154;2023-05-20T15:00:59;22.92;;;4.05;;
2023;SDS011;1016;48.770;9.154;2023-05-20T15:03:25;23.50;;;3.90;;
2023;SDS011;1016;48.770;9.154;2023-05-20T15:05:51;23.73;;;4.18;;
2023;SDS011;1016;48.770;9.154;2023-05-20T15:08:17;22.47;;;4.20;;
2023;SDS011;1016;48.770;9.154;2023-05-20T15:10:42;22.48;;;5.28;;
2023;SDS011;1016;48.770;9.154;2023-05-20T15:13:08;22.65;;;4.82;;
2023;SDS011;1016;48.770;9.154;2023-05-20T15:15:33;22.40;;;4.50;;
2023;SDS011;1016;48.770;9.154;2023-05-20T15:17:59;21.97;;;4.00;;
2023;SDS011;1016;48.770;9.154;2023-05-20T15:20:25;23.70;;;4.40;;
2023;SDS011;1016;48.770;9.154;2023-05-20T15:22:50;22.10;;;3.90;;
2023;SDS011;1016;48.770;9.154;2023-05-20T15:25:17;22.15;;;4.07;;
2023;SDS011;1016;48.770;9.154;2023-05-20T15:27:43;23.10;;;4.50;;
2023;SDS011;1016;48.770;9.154;2023-05-20T15:30:08;23.60;;;4.07;;
2023;SDS011;1016;48.770;9.154;2023-05-20T15:32:34;21.67;;;4.00;;
2023;SDS011;1016;48.770;9.154;2023-05-20T15:35:00;21.40;;;4.10;;
2023;SDS011;1016;48.770;9.154;2023-05-20T15:37:26;22.70;;;4.00;;
2023;SDS011;1016;48.770;9.154;2023-05-20T15:39:51;21.80;;;4.50;;